WST weather

Westerly State Airport
Westerly, Rhode Island, United States

Public forecast

Using degrees Fahrenheit for public forecast. Weather courtesy of forecast.io.

Current aviation weather report (METAR) for Westerly State Airport

Retrieved 2019/10/23 10:30 UTC (0 seconds ago):

KWST 231030Z AUTO 21005KT 4SM BR OVC002 18/18 A2972 RMK AO2 RAE05 P0000 T01830183

Closest aviation forecast (TAF) to Westerly State Airport

Closest forecast is Groton New London Airport, 11.0 nm (20.3 km) W. Retrieved 2019/10/23 06:28 UTC (4 hours ago):

TAF KGON 230526Z 2306/2406 08008KT 2SM -RA BR OVC005 TEMPO 2306/2307 13006KT 1SM -RA BR OVC003 FM230900 29008KT 4SM -RA BR OVC006 FM231100 30010KT 5SM BR BKN025 OVC035 FM231400 29012G17KT P6SM SCT025 SCT250 FM231600 28015G23KT P6SM FEW250 FM232100 29010KT P6SM SKC FM240400 30005KT P6SM SKC